Time;durP1;ratioP1;P1;durP2;ratioP2;P2;SDS_P1;SDS_P2;PMS_P1;PMS_P2;Temp;Humidity;BMP_temperature;BMP_pressure;BME280_temperature;BME280_humidity;BME280_pressure;Samples;Min_cycle;Max_cycle;Signal;HPM_P1;HPM_P2
2022/04/18 00:00:18;;;;;;;0.30;0.20;;;2.20;99.90;;;;;;5007248;28;20520;-88
2022/04/18 00:02:45;;;;;;;0.30;0.20;;;2.20;99.90;;;;;;5003772;28;20458;-88
2022/04/18 00:05:12;;;;;;;0.57;0.57;;;2.20;99.90;;;;;;5006631;28;20523;-88
2022/04/18 00:07:41;;;;;;;0.30;0.10;;;2.20;99.90;;;;;;5015960;28;20497;-86
2022/04/18 00:10:08;;;;;;;0.60;0.37;;;2.10;99.90;;;;;;5031946;28;20478;-88
2022/04/18 00:12:35;;;;;;;0.40;0.37;;;2.10;99.90;;;;;;5007139;28;20458;-87
2022/04/18 00:15:02;;;;;;;0.30;0.17;;;2.00;99.90;;;;;;5010793;28;20462;-88
2022/04/18 00:17:29;;;;;;;0.30;0.20;;;1.90;99.90;;;;;;5009847;28;21056;-87
2022/04/18 00:19:57;;;;;;;0.30;0.20;;;1.90;99.90;;;;;;5008478;28;20517;-88
2022/04/18 00:22:24;;;;;;;0.30;0.10;;;1.90;99.90;;;;;;5005340;28;20570;-88
2022/04/18 00:24:53;;;;;;;0.30;0.10;;;1.90;99.90;;;;;;5005589;28;20453;-88
2022/04/18 00:27:20;;;;;;;0.30;0.20;;;1.80;99.90;;;;;;5007225;28;20467;-88
2022/04/18 00:29:49;;;;;;;1.00;1.00;;;1.80;99.90;;;;;;5005832;28;20796;-88
2022/04/18 00:32:16;;;;;;;0.30;0.10;;;1.80;99.90;;;;;;5004401;28;21278;-88
2022/04/18 00:34:43;;;;;;;0.30;0.20;;;1.70;99.90;;;;;;5003482;28;20845;-88
2022/04/18 00:37:10;;;;;;;0.93;0.93;;;1.80;99.90;;;;;;5006020;28;20446;-88
2022/04/18 00:39:37;;;;;;;0.70;0.40;;;2.00;99.90;;;;;;5003496;28;20462;-88
2022/04/18 00:42:06;;;;;;;0.30;0.13;;;1.90;99.90;;;;;;5006458;28;20475;-88
2022/04/18 00:44:33;;;;;;;0.50;0.50;;;2.00;99.90;;;;;;5005820;28;20447;-88
2022/04/18 00:47:00;;;;;;;0.50;0.50;;;1.90;99.90;;;;;;5006603;28;20446;-88
2022/04/18 00:49:28;;;;;;;0.40;0.20;;;2.00;99.90;;;;;;5001836;28;20470;-88
2022/04/18 00:51:57;;;;;;;0.30;0.20;;;2.00;99.90;;;;;;5007178;28;20459;-87
2022/04/18 00:54:24;;;;;;;0.30;0.10;;;1.80;99.90;;;;;;5003920;28;20661;-87
2022/04/18 00:56:53;;;;;;;0.43;0.37;;;1.60;99.90;;;;;;5006555;28;20509;-87
2022/04/18 00:59:22;;;;;;;0.30;0.20;;;1.50;99.90;;;;;;5005520;28;20954;-87
2022/04/18 01:01:50;;;;;;;0.30;0.20;;;1.40;99.90;;;;;;5005991;28;20573;-87
2022/04/18 01:04:17;;;;;;;0.40;0.20;;;1.30;99.90;;;;;;5005868;28;20489;-88
2022/04/18 01:06:45;;;;;;;0.30;0.10;;;1.30;99.90;;;;;;5002862;28;20496;-87
2022/04/18 01:09:12;;;;;;;0.30;0.10;;;1.20;99.90;;;;;;5006595;28;20450;-87
2022/04/18 01:11:39;;;;;;;0.30;0.10;;;1.10;99.90;;;;;;5005863;28;20933;-85
2022/04/18 01:14:06;;;;;;;0.30;0.13;;;1.10;99.90;;;;;;5001912;28;20995;-87
2022/04/18 01:16:35;;;;;;;0.30;0.10;;;1.10;99.90;;;;;;5006480;28;20517;-87
2022/04/18 01:19:02;;;;;;;0.30;0.10;;;1.00;99.90;;;;;;5007742;28;20513;-87
2022/04/18 01:21:30;;;;;;;0.30;0.20;;;1.00;99.90;;;;;;5004662;28;20560;-87
2022/04/18 01:23:58;;;;;;;0.30;0.17;;;1.00;99.90;;;;;;5006760;28;20779;-88
2022/04/18 01:29:10;;;;;;;0.30;0.20;;;1.00;99.90;;;;;;5001422;28;20450;-87
2022/04/18 01:31:39;;;;;;;0.40;0.30;;;0.90;99.90;;;;;;5006286;28;20505;-87
2022/04/18 01:34:08;;;;;;;0.30;0.20;;;0.90;99.90;;;;;;5003491;28;22161;-87
2022/04/18 01:36:36;;;;;;;0.30;0.20;;;0.90;99.90;;;;;;5003712;28;20462;-88
2022/04/18 01:39:04;;;;;;;0.97;0.30;;;0.90;99.90;;;;;;5002450;28;20987;-87
2022/04/18 01:41:31;;;;;;;0.30;0.20;;;0.80;99.90;;;;;;5006296;28;20572;-87
2022/04/18 01:43:58;;;;;;;0.30;0.10;;;0.80;99.90;;;;;;5006833;28;20493;-88
2022/04/18 01:46:25;;;;;;;0.30;0.20;;;0.80;99.90;;;;;;5003954;28;20961;-87
2022/04/18 01:48:52;;;;;;;0.30;0.20;;;0.70;99.90;;;;;;5006370;28;20513;-87
2022/04/18 01:51:20;;;;;;;0.30;0.10;;;0.70;99.90;;;;;;5006282;28;20537;-87
2022/04/18 01:53:48;;;;;;;0.30;0.10;;;0.70;99.90;;;;;;5005778;28;20456;-88
2022/04/18 01:56:16;;;;;;;0.40;0.40;;;0.70;99.90;;;;;;5005118;28;20462;-87
2022/04/18 01:58:43;;;;;;;0.30;0.10;;;0.70;99.90;;;;;;5009991;28;20509;-87
2022/04/18 02:01:10;;;;;;;0.30;0.10;;;0.60;99.90;;;;;;5006360;28;20504;-87
2022/04/18 02:03:40;;;;;;;0.30;0.10;;;0.60;99.90;;;;;;5008575;28;20442;-88
2022/04/18 02:06:07;;;;;;;0.30;0.20;;;0.60;99.90;;;;;;5008099;28;20497;-88
2022/04/18 02:08:35;;;;;;;0.30;0.10;;;0.50;99.90;;;;;;5009057;28;20475;-87
2022/04/18 02:11:04;;;;;;;0.30;0.10;;;0.50;99.90;;;;;;5009426;28;20446;-88
2022/04/18 02:13:31;;;;;;;0.30;0.10;;;0.50;99.90;;;;;;5008204;28;20973;-88
2022/04/18 02:15:59;;;;;;;0.30;0.20;;;0.40;99.90;;;;;;5007611;28;20443;-88
2022/04/18 02:18:26;;;;;;;0.30;0.10;;;0.40;99.90;;;;;;5007635;28;20473;-88
2022/04/18 02:20:53;;;;;;;0.30;0.20;;;0.40;99.90;;;;;;5007393;28;20992;-87
2022/04/18 02:23:20;;;;;;;0.60;0.60;;;0.40;99.90;;;;;;5009804;28;20442;-88
2022/04/18 02:25:47;;;;;;;0.30;0.10;;;0.50;99.90;;;;;;5008759;28;20470;-87
2022/04/18 02:28:15;;;;;;;0.60;0.47;;;0.50;99.90;;;;;;4998107;28;20997;-87
2022/04/18 02:30:42;;;;;;;0.30;0.20;;;0.40;99.90;;;;;;4999436;28;20466;-88
2022/04/18 02:33:09;;;;;;;0.30;0.10;;;0.40;99.90;;;;;;5006156;28;20902;-88
2022/04/18 02:35:36;;;;;;;0.30;0.10;;;0.40;99.90;;;;;;5003210;28;21060;-88
2022/04/18 02:38:04;;;;;;;0.30;0.10;;;0.40;99.90;;;;;;5007319;28;20435;-88
2022/04/18 02:40:31;;;;;;;0.30;0.10;;;0.40;99.90;;;;;;5009838;28;20454;-88
2022/04/18 02:42:58;;;;;;;0.30;0.10;;;0.30;99.90;;;;;;5007709;28;20487;-88
2022/04/18 02:45:27;;;;;;;0.30;0.10;;;0.30;99.90;;;;;;5007297;28;20447;-87
2022/04/18 02:47:54;;;;;;;0.30;0.20;;;0.20;99.90;;;;;;5029984;28;20454;-87
2022/04/18 02:50:21;;;;;;;0.30;0.20;;;0.20;99.90;;;;;;5029439;28;20485;-88
2022/04/18 02:52:48;;;;;;;0.30;0.10;;;0.20;99.90;;;;;;5011978;28;20898;-87
2022/04/18 02:55:15;;;;;;;0.30;0.10;;;0.10;99.90;;;;;;5011879;28;20447;-87
2022/04/18 02:57:42;;;;;;;0.30;0.17;;;0.10;99.90;;;;;;5005897;28;20466;-87
2022/04/18 03:00:10;;;;;;;0.30;0.10;;;0.10;99.90;;;;;;5008722;28;20454;-87
2022/04/18 03:02:40;;;;;;;0.30;0.10;;;0.10;99.90;;;;;;5007904;28;20542;-87
2022/04/18 03:05:09;;;;;;;0.30;0.10;;;0.00;99.90;;;;;;5008295;28;20447;-88
2022/04/18 03:07:37;;;;;;;0.30;0.10;;;0.00;99.90;;;;;;5005484;28;20497;-88
2022/04/18 03:10:05;;;;;;;0.30;0.10;;;0.00;99.90;;;;;;5008332;28;20833;-88
2022/04/18 03:12:33;;;;;;;0.30;0.10;;;0.00;99.90;;;;;;5005750;28;20438;-88
2022/04/18 03:14:59;;;;;;;0.30;0.10;;;0.00;99.90;;;;;;5005408;28;20506;-87
2022/04/18 03:17:27;;;;;;;0.50;0.37;;;0.00;99.90;;;;;;5004932;28;20930;-88
2022/04/18 03:19:55;;;;;;;0.30;0.10;;;0.00;99.90;;;;;;5005794;28;20783;-88
2022/04/18 03:22:23;;;;;;;0.30;0.20;;;0.00;99.90;;;;;;5008035;28;20486;-87
2022/04/18 03:24:50;;;;;;;0.30;0.10;;;0.00;99.90;;;;;;5004673;28;20985;-88
2022/04/18 03:27:20;;;;;;;0.30;0.10;;;0.00;99.90;;;;;;5008551;28;20528;-88
2022/04/18 03:29:48;;;;;;;0.30;0.10;;;0.00;99.90;;;;;;5007561;28;20474;-88
2022/04/18 03:32:15;;;;;;;0.30;0.10;;;0.00;99.90;;;;;;5007185;28;20474;-87
2022/04/18 03:34:42;;;;;;;0.30;0.20;;;0.00;99.90;;;;;;5006790;28;20807;-87
2022/04/18 03:39:55;;;;;;;0.30;0.10;;;0.30;99.90;;;;;;5008560;28;20527;-87
2022/04/18 03:42:35;;;;;;;0.30;0.10;;;0.20;99.90;;;;;;5007806;28;20581;-87
2022/04/18 03:45:04;;;;;;;0.30;0.10;;;0.20;99.90;;;;;;5007786;28;20546;-88
2022/04/18 03:47:31;;;;;;;0.30;0.10;;;0.10;99.90;;;;;;5006954;28;20494;-87
2022/04/18 03:49:59;;;;;;;0.30;0.10;;;0.00;99.90;;;;;;5006775;28;20492;-87
2022/04/18 03:52:27;;;;;;;0.40;0.30;;;0.00;99.90;;;;;;5006057;28;20444;-88
2022/04/18 03:54:54;;;;;;;0.30;0.20;;;0.00;99.90;;;;;;5005374;28;20486;-88
2022/04/18 03:57:21;;;;;;;0.30;0.10;;;-0.10;99.90;;;;;;5005048;28;20527;-87
2022/04/18 03:59:48;;;;;;;0.30;0.10;;;-0.20;99.90;;;;;;5007634;28;20446;-88
2022/04/18 04:02:15;;;;;;;0.30;0.10;;;-0.10;99.90;;;;;;5005257;28;20490;-87
2022/04/18 04:04:43;;;;;;;0.30;0.10;;;-0.20;99.90;;;;;;5007252;28;20504;-87
2022/04/18 04:07:10;;;;;;;0.30;0.10;;;-0.20;99.90;;;;;;5001558;28;20520;-87
2022/04/18 04:09:39;;;;;;;0.30;0.10;;;-0.30;99.90;;;;;;5006219;28;20501;-87
2022/04/18 04:12:07;;;;;;;0.30;0.10;;;-0.30;99.90;;;;;;5004432;28;20532;-87
2022/04/18 04:14:34;;;;;;;0.30;0.10;;;-0.40;99.90;;;;;;5007875;28;20434;-87
2022/04/18 04:17:01;;;;;;;0.30;0.10;;;-0.40;99.90;;;;;;5007638;28;20540;-88
2022/04/18 04:19:28;;;;;;;0.30;0.10;;;-0.40;99.90;;;;;;5007035;28;20458;-88
2022/04/18 04:21:55;;;;;;;0.30;0.10;;;-0.40;99.90;;;;;;5003942;28;20565;-88
2022/04/18 04:24:23;;;;;;;0.30;0.10;;;-0.40;99.90;;;;;;5006378;28;20442;-88
2022/04/18 04:26:51;;;;;;;0.30;0.20;;;-0.30;99.90;;;;;;5006518;28;20466;-88
2022/04/18 04:29:18;;;;;;;0.33;0.20;;;-0.30;99.90;;;;;;5003759;28;20457;-88
2022/04/18 04:31:45;;;;;;;0.77;0.67;;;-0.30;99.90;;;;;;5005966;28;20508;-88
2022/04/18 04:34:13;;;;;;;0.30;0.10;;;-0.20;99.90;;;;;;5004627;28;20540;-88
2022/04/18 04:36:41;;;;;;;1.03;1.03;;;-0.10;99.90;;;;;;5004126;28;21066;-88
2022/04/18 04:39:08;;;;;;;0.30;0.10;;;0.00;99.90;;;;;;5004829;28;20905;-87
2022/04/18 04:41:36;;;;;;;0.30;0.20;;;0.10;99.90;;;;;;5006931;28;20473;-87
2022/04/18 04:44:06;;;;;;;0.50;0.50;;;0.10;99.90;;;;;;5003038;28;20470;-87
2022/04/18 04:46:33;;;;;;;0.30;0.10;;;0.20;99.90;;;;;;5007201;28;20546;-83
2022/04/18 04:49:00;;;;;;;0.30;0.10;;;0.20;99.90;;;;;;5007965;28;20943;-87
2022/04/18 04:51:27;;;;;;;0.30;0.10;;;0.40;99.90;;;;;;5007551;28;20501;-87
2022/04/18 04:53:54;;;;;;;0.30;0.10;;;0.40;99.90;;;;;;4994630;28;20462;-87
2022/04/18 04:56:23;;;;;;;0.30;0.10;;;0.50;99.90;;;;;;4989583;28;20473;-87
2022/04/18 04:58:51;;;;;;;0.30;0.10;;;0.60;99.90;;;;;;5005901;28;20537;-88
2022/04/18 05:01:19;;;;;;;0.30;0.10;;;0.60;99.90;;;;;;5001321;28;20488;-88
2022/04/18 05:03:46;;;;;;;0.30;0.10;;;0.70;99.90;;;;;;5004017;28;21051;-87
2022/04/18 05:06:14;;;;;;;0.30;0.10;;;0.70;99.90;;;;;;5007180;28;21006;-88
2022/04/18 05:08:41;;;;;;;0.30;0.10;;;0.80;99.90;;;;;;5005330;28;20448;-88
2022/04/18 05:11:08;;;;;;;0.30;0.10;;;1.00;99.90;;;;;;5007405;28;20465;-87
2022/04/18 05:13:35;;;;;;;0.40;0.27;;;1.00;99.90;;;;;;4999288;28;20515;-88
2022/04/18 05:16:02;;;;;;;0.30;0.10;;;1.10;99.90;;;;;;4997277;28;20523;-87
2022/04/18 05:18:31;;;;;;;0.30;0.10;;;1.20;99.90;;;;;;5004242;28;20447;-87
2022/04/18 05:20:58;;;;;;;0.30;0.10;;;1.30;99.90;;;;;;5006097;28;20621;-87
2022/04/18 05:23:25;;;;;;;0.30;0.10;;;1.50;99.90;;;;;;5005388;28;21063;-87
2022/04/18 05:25:52;;;;;;;0.30;0.10;;;1.60;99.90;;;;;;4992845;28;21051;-87
2022/04/18 05:28:19;;;;;;;0.30;0.20;;;1.80;99.90;;;;;;4993023;28;20529;-90
2022/04/18 05:30:46;;;;;;;0.30;0.13;;;1.90;99.90;;;;;;5001342;28;20459;-86
2022/04/18 05:33:13;;;;;;;0.30;0.20;;;2.10;99.90;;;;;;5008310;28;20629;-87
2022/04/18 05:35:42;;;;;;;0.30;0.10;;;2.20;99.90;;;;;;5005291;28;20524;-87
2022/04/18 05:38:09;;;;;;;0.37;0.27;;;2.30;99.90;;;;;;5006289;28;20518;-87
2022/04/18 05:40:36;;;;;;;0.30;0.10;;;2.40;99.90;;;;;;5009546;28;20458;-86
2022/04/18 05:43:04;;;;;;;0.73;0.73;;;2.50;99.90;;;;;;5009220;28;21017;-86
2022/04/18 05:45:31;;;;;;;0.30;0.10;;;2.60;99.90;;;;;;4999380;28;20458;-86
2022/04/18 05:47:58;;;;;;;0.30;0.20;;;2.70;99.90;;;;;;5010565;28;20505;-86
2022/04/18 05:50:25;;;;;;;0.40;0.23;;;2.90;99.90;;;;;;5010353;28;20450;-87
2022/04/18 05:52:53;;;;;;;0.30;0.10;;;2.90;99.90;;;;;;4999505;28;20508;-86
2022/04/18 05:55:21;;;;;;;0.30;0.20;;;3.10;99.90;;;;;;5000538;28;20465;-86
2022/04/18 05:57:48;;;;;;;0.30;0.10;;;3.30;99.90;;;;;;5009289;28;21142;-86
2022/04/18 06:00:17;;;;;;;0.30;0.10;;;3.50;99.90;;;;;;5004383;28;20512;-86
2022/04/18 06:02:43;;;;;;;0.40;0.23;;;3.60;99.90;;;;;;5004546;28;20502;-86
2022/04/18 06:05:11;;;;;;;0.30;0.20;;;3.80;99.90;;;;;;5011965;28;20471;-87
2022/04/18 06:07:38;;;;;;;0.40;0.30;;;3.80;99.90;;;;;;5016395;28;20487;-86
2022/04/18 06:10:08;;;;;;;0.30;0.10;;;4.00;99.90;;;;;;5017969;28;20462;-87
2022/04/18 06:12:35;;;;;;;0.30;0.10;;;4.10;99.90;;;;;;5022652;28;20446;-86
2022/04/18 06:15:02;;;;;;;0.40;0.20;;;4.30;99.90;;;;;;5011277;28;20490;-87
2022/04/18 06:17:29;;;;;;;0.40;0.30;;;4.40;99.90;;;;;;5010462;28;20489;-86
2022/04/18 06:19:56;;;;;;;0.30;0.20;;;4.50;99.90;;;;;;5010342;28;20463;-86
2022/04/18 06:22:23;;;;;;;0.30;0.20;;;4.60;99.90;;;;;;5008300;28;20887;-86
2022/04/18 06:24:50;;;;;;;0.30;0.20;;;4.70;99.90;;;;;;5013509;28;20985;-87
2022/04/18 06:27:18;;;;;;;0.30;0.10;;;4.90;99.90;;;;;;5008698;28;20548;-86
2022/04/18 06:29:45;;;;;;;0.30;0.10;;;4.90;99.90;;;;;;5006330;28;20478;-86
2022/04/18 06:32:12;;;;;;;0.30;0.20;;;5.00;99.90;;;;;;5001526;28;20468;-86
2022/04/18 06:34:39;;;;;;;0.30;0.20;;;5.00;99.90;;;;;;4998829;28;20504;-86
2022/04/18 06:37:06;;;;;;;0.40;0.40;;;5.10;99.90;;;;;;4997801;28;21104;-86
2022/04/18 06:39:34;;;;;;;0.30;0.10;;;5.10;99.90;;;;;;5001851;28;20455;-85
2022/04/18 06:42:01;;;;;;;0.30;0.20;;;5.20;99.90;;;;;;5005429;28;20942;-85
2022/04/18 06:44:29;;;;;;;0.40;0.20;;;5.30;99.90;;;;;;5012095;28;21067;-85
2022/04/18 06:46:56;;;;;;;0.30;0.10;;;5.30;99.90;;;;;;5000497;28;20462;-85
2022/04/18 06:49:23;;;;;;;0.50;0.30;;;5.50;99.90;;;;;;4998916;28;20516;-86
2022/04/18 06:51:50;;;;;;;0.30;0.10;;;5.80;99.90;;;;;;5004256;28;21263;-84
2022/04/18 06:54:17;;;;;;;1.70;1.70;;;6.00;99.90;;;;;;5005688;28;21241;-85
2022/04/18 06:57:02;;;;;;;0.80;0.20;;;6.10;99.90;;;;;;5004421;28;20497;-85
2022/04/18 06:59:31;;;;;;;0.30;0.20;;;6.30;99.90;;;;;;4999709;28;20509;-85
2022/04/18 07:02:00;;;;;;;0.30;0.20;;;6.70;99.90;;;;;;5001979;28;20895;-86
2022/04/18 07:04:27;;;;;;;0.30;0.20;;;6.50;98.60;;;;;;5007226;28;20482;-84
2022/04/18 07:06:54;;;;;;;0.30;0.20;;;6.40;98.20;;;;;;5006549;28;20455;-86
2022/04/18 07:09:21;;;;;;;0.30;0.10;;;6.60;98.00;;;;;;5001393;28;20493;-85
2022/04/18 07:11:48;;;;;;;0.30;0.10;;;6.70;97.90;;;;;;5007187;28;20812;-88
2022/04/18 07:14:16;;;;;;;0.60;0.60;;;6.70;98.00;;;;;;5001111;28;21212;-86
2022/04/18 07:16:44;;;;;;;0.40;0.40;;;6.80;98.70;;;;;;5000046;28;20466;-86
2022/04/18 07:19:12;;;;;;;0.30;0.20;;;6.70;98.90;;;;;;5004540;28;20473;-86
2022/04/18 07:21:39;;;;;;;0.53;0.40;;;6.90;98.50;;;;;;5005947;28;20473;-86
2022/04/18 07:24:06;;;;;;;1.17;0.93;;;6.90;98.80;;;;;;5006103;28;20528;-84
2022/04/18 07:26:34;;;;;;;0.40;0.30;;;7.10;97.80;;;;;;5008813;28;20449;-83
2022/04/18 07:29:00;;;;;;;0.50;0.30;;;7.30;97.50;;;;;;5001289;28;20833;-85
2022/04/18 07:31:27;;;;;;;0.30;0.17;;;7.50;97.50;;;;;;4999962;28;20515;-85
2022/04/18 07:33:56;;;;;;;0.30;0.20;;;7.70;97.00;;;;;;4995973;28;20505;-85
2022/04/18 07:36:23;;;;;;;0.30;0.10;;;7.70;97.40;;;;;;4993230;28;20502;-85
2022/04/18 07:38:50;;;;;;;0.30;0.13;;;8.20;97.30;;;;;;4996169;28;20495;-85
2022/04/18 07:41:17;;;;;;;0.30;0.20;;;8.40;94.70;;;;;;4999068;28;20470;-85
2022/04/18 07:43:44;;;;;;;0.40;0.30;;;8.60;94.60;;;;;;4992753;28;20478;-85
2022/04/18 07:46:11;;;;;;;0.30;0.20;;;8.40;94.40;;;;;;5000783;28;20865;-85
2022/04/18 07:48:38;;;;;;;0.30;0.20;;;8.50;93.40;;;;;;5003166;28;20454;-84
2022/04/18 07:53:51;;;;;;;0.30;0.20;;;8.30;93.30;;;;;;5004191;28;20601;-83
2022/04/18 07:56:19;;;;;;;0.30;0.20;;;8.40;94.30;;;;;;5006085;28;20553;-84
2022/04/18 07:58:47;;;;;;;0.30;0.10;;;8.80;95.30;;;;;;5005500;28;20508;-84
2022/04/18 08:01:14;;;;;;;0.30;0.20;;;8.70;92.70;;;;;;5005153;28;21471;-85
2022/04/18 08:03:41;;;;;;;0.30;0.20;;;8.70;92.10;;;;;;5001389;28;20526;-85
2022/04/18 08:06:09;;;;;;;0.30;0.20;;;8.80;92.30;;;;;;5000468;28;20945;-86
2022/04/18 08:08:36;;;;;;;0.30;0.20;;;8.90;91.60;;;;;;5002721;28;20462;-85
2022/04/18 08:11:03;;;;;;;0.40;0.30;;;8.90;90.90;;;;;;5001829;28;20516;-84
2022/04/18 08:13:30;;;;;;;0.30;0.30;;;9.10;90.70;;;;;;5003286;28;21144;-89
2022/04/18 08:15:58;;;;;;;1.30;1.20;;;9.40;88.60;;;;;;5004760;28;20458;-85
2022/04/18 08:18:26;;;;;;;0.30;0.20;;;9.40;82.90;;;;;;5005994;28;20466;-84
2022/04/18 08:20:53;;;;;;;3.30;1.23;;;9.50;87.10;;;;;;5010173;28;20829;-86
2022/04/18 08:23:22;;;;;;;0.30;0.10;;;9.60;84.80;;;;;;5008567;28;20521;-86
2022/04/18 08:25:49;;;;;;;1.43;0.83;;;9.40;86.70;;;;;;5003339;28;20625;-85
2022/04/18 08:28:16;;;;;;;0.30;0.20;;;9.40;83.50;;;;;;4996162;28;20534;-86
2022/04/18 08:30:43;;;;;;;0.40;0.20;;;9.50;85.40;;;;;;4998326;28;20454;-86
2022/04/18 08:33:10;;;;;;;0.33;0.20;;;9.70;83.30;;;;;;4998435;28;20629;-86
2022/04/18 08:35:37;;;;;;;0.30;0.20;;;9.70;82.80;;;;;;4993871;28;20464;-84
2022/04/18 08:38:04;;;;;;;0.30;0.10;;;9.60;85.20;;;;;;4992954;28;20494;-86
2022/04/18 08:40:34;;;;;;;0.30;0.10;;;9.70;78.60;;;;;;4997767;28;20470;-85
2022/04/18 08:43:01;;;;;;;1.07;0.50;;;9.30;78.60;;;;;;4999083;28;20496;-85
2022/04/18 08:45:28;;;;;;;0.30;0.20;;;9.30;80.80;;;;;;4996854;28;20462;-86
2022/04/18 08:53:29;;;;;;;0.30;0.20;;;9.50;80.00;;;;;;4996294;28;20443;-86
2022/04/18 08:55:59;;;;;;;0.30;0.20;;;9.60;81.80;;;;;;5002563;28;20808;-84
2022/04/18 08:58:27;;;;;;;0.30;0.10;;;9.60;78.40;;;;;;5002293;28;21181;-84
2022/04/18 09:00:55;;;;;;;0.30;0.10;;;9.40;80.70;;;;;;5002325;28;20547;-85
2022/04/18 09:03:23;;;;;;;0.40;0.30;;;9.40;77.20;;;;;;4999312;28;20601;-86
2022/04/18 09:05:50;;;;;;;0.40;0.30;;;9.40;77.30;;;;;;5003130;28;20458;-86
2022/04/18 09:08:17;;;;;;;0.30;0.20;;;9.40;79.20;;;;;;5010087;28;20566;-85
2022/04/18 09:10:49;;;;;;;0.30;0.10;;;9.60;80.90;;;;;;5003311;28;20487;-83
2022/04/18 09:13:25;;;;;;;0.30;0.10;;;9.80;78.80;;;;;;5001975;28;21055;-84
2022/04/18 09:15:52;;;;;;;0.30;0.20;;;9.70;78.30;;;;;;5004550;28;20528;-84
2022/04/18 09:18:20;;;;;;;0.30;0.20;;;9.90;79.90;;;;;;5000756;28;20548;-83
2022/04/18 09:20:50;;;;;;;0.70;0.70;;;10.10;79.40;;;;;;5001724;28;20490;-83
2022/04/18 09:23:25;;;;;;;0.80;0.80;;;10.20;79.60;;;;;;5004661;28;20485;-83
2022/04/18 09:26:00;;;;;;;0.30;0.20;;;10.40;75.40;;;;;;5017257;28;20466;-83
2022/04/18 09:28:31;;;;;;;0.30;0.20;;;10.30;73.20;;;;;;5017094;28;20535;-85
2022/04/18 09:31:05;;;;;;;0.30;0.20;;;10.40;70.80;;;;;;5008545;28;21049;-83
2022/04/18 09:33:41;;;;;;;0.50;0.33;;;10.60;72.50;;;;;;5005842;28;20558;-82
2022/04/18 09:36:13;;;;;;;0.30;0.20;;;10.60;70.50;;;;;;5005467;28;20477;-86
2022/04/18 09:38:43;;;;;;;0.70;0.57;;;10.70;73.60;;;;;;5005869;28;20461;-86
2022/04/18 09:41:13;;;;;;;0.30;0.20;;;10.80;73.40;;;;;;5005113;28;20450;-85
2022/04/18 09:43:44;;;;;;;0.43;0.43;;;11.00;72.90;;;;;;5000153;28;20501;-84
2022/04/18 09:46:12;;;;;;;0.30;0.20;;;10.80;69.00;;;;;;5003492;28;20459;-84
2022/04/18 09:48:40;;;;;;;0.30;0.20;;;10.60;71.00;;;;;;5007771;28;20459;-82
2022/04/18 09:51:09;;;;;;;0.30;0.20;;;10.60;70.60;;;;;;5005966;28;20532;-83
2022/04/18 09:53:37;;;;;;;0.30;0.20;;;10.70;71.40;;;;;;5004631;28;20540;-84
2022/04/18 09:56:05;;;;;;;0.30;0.20;;;10.60;73.30;;;;;;4999191;28;20624;-85
2022/04/18 09:58:33;;;;;;;0.50;0.50;;;10.70;75.30;;;;;;5001236;28;20458;-85
2022/04/18 10:01:04;;;;;;;0.40;0.20;;;10.60;68.50;;;;;;5002611;28;20575;-83
2022/04/18 10:03:32;;;;;;;0.30;0.20;;;10.50;68.50;;;;;;4999789;28;20966;-85
2022/04/18 10:06:00;;;;;;;0.40;0.20;;;10.80;71.90;;;;;;5003324;28;20510;-84
2022/04/18 10:08:28;;;;;;;0.30;0.20;;;11.00;73.10;;;;;;5007875;28;20960;-84
2022/04/18 10:10:57;;;;;;;0.40;0.20;;;11.00;68.30;;;;;;5010676;28;20453;-82
2022/04/18 10:13:24;;;;;;;0.40;0.30;;;10.90;65.10;;;;;;5004998;28;20549;-83
2022/04/18 10:15:52;;;;;;;0.30;0.20;;;10.80;66.00;;;;;;5002019;28;20950;-85
2022/04/18 10:18:21;;;;;;;0.30;0.10;;;10.70;63.30;;;;;;5009539;28;20463;-84
2022/04/18 10:21:03;;;;;;;0.40;0.20;;;10.80;66.50;;;;;;5006768;28;20488;-84
2022/04/18 10:23:56;;;;;;;0.40;0.40;;;10.80;64.20;;;;;;4999471;28;20466;-83
2022/04/18 10:26:51;;;;;;;0.30;0.20;;;10.70;65.00;;;;;;5006778;28;20561;-83
2022/04/18 10:29:21;;;;;;;0.40;0.30;;;10.70;65.80;;;;;;4997742;28;20471;-83
2022/04/18 10:31:52;;;;;;;0.30;0.20;;;11.00;67.10;;;;;;4997668;28;20474;-83
2022/04/18 10:34:22;;;;;;;0.30;0.20;;;11.20;64.50;;;;;;4994809;28;20580;-84
2022/04/18 10:36:53;;;;;;;0.63;0.63;;;11.30;64.20;;;;;;4998696;28;20469;-84
2022/04/18 10:39:20;;;;;;;0.30;0.20;;;11.20;65.20;;;;;;4998979;28;20459;-83
2022/04/18 10:41:48;;;;;;;0.30;0.20;;;11.60;64.30;;;;;;4994871;28;20466;-84
2022/04/18 10:44:16;;;;;;;0.30;0.20;;;11.90;65.30;;;;;;5003350;28;20564;-85
2022/04/18 10:47:01;;;;;;;0.33;0.20;;;12.10;61.80;;;;;;4996666;28;20463;-85
2022/04/18 10:49:31;;;;;;;0.33;0.27;;;12.30;62.70;;;;;;4998610;28;20470;-84
2022/04/18 10:52:09;;;;;;;0.30;0.20;;;11.90;60.10;;;;;;4997662;28;21260;-83
2022/04/18 10:54:36;;;;;;;0.30;0.20;;;12.10;61.60;;;;;;4994945;28;20609;-85
2022/04/18 10:57:06;;;;;;;0.40;0.30;;;12.30;60.10;;;;;;4998046;28;20478;-83
2022/04/18 10:59:34;;;;;;;0.40;0.30;;;12.40;58.00;;;;;;4998745;28;20465;-83
2022/04/18 11:02:03;;;;;;;0.30;0.20;;;12.30;58.70;;;;;;4998024;28;20463;-84
2022/04/18 11:04:33;;;;;;;0.30;0.20;;;12.50;62.40;;;;;;4995609;28;21321;-84
2022/04/18 11:07:02;;;;;;;0.30;0.20;;;12.40;58.60;;;;;;5001353;28;20562;-85
2022/04/18 11:09:38;;;;;;;0.30;0.10;;;12.20;57.30;;;;;;4997295;28;20486;-84
2022/04/18 11:12:08;;;;;;;0.30;0.20;;;12.40;59.00;;;;;;4996124;28;20454;-86
2022/04/18 11:14:51;;;;;;;0.30;0.20;;;12.60;58.40;;;;;;4997705;28;20589;-83
2022/04/18 11:17:32;;;;;;;0.30;0.20;;;12.60;59.30;;;;;;5000154;28;20471;-82
2022/04/18 11:20:38;;;;;;;1.03;1.03;;;12.40;57.60;;;;;;5003431;28;20881;-82
2022/04/18 11:23:21;;;;;;;0.30;0.20;;;12.20;57.30;;;;;;5000133;28;20458;-83
2022/04/18 11:25:57;;;;;;;0.30;0.20;;;12.20;59.20;;;;;;4999714;28;20547;-84
2022/04/18 11:28:27;;;;;;;0.70;0.70;;;12.20;59.40;;;;;;4999570;28;20554;-85
2022/04/18 11:30:54;;;;;;;0.67;0.20;;;12.20;58.60;;;;;;5006554;28;21378;-86
2022/04/18 11:33:20;;;;;;;0.40;0.30;;;12.20;61.30;;;;;;5001518;28;20469;-84
2022/04/18 11:35:49;;;;;;;0.30;0.20;;;12.00;63.50;;;;;;5008839;28;20541;-85
2022/04/18 11:38:16;;;;;;;0.30;0.20;;;11.90;61.20;;;;;;5002170;28;20528;-83
2022/04/18 11:40:44;;;;;;;0.30;0.20;;;12.00;61.70;;;;;;4999536;28;20485;-84
2022/04/18 11:43:12;;;;;;;0.33;0.20;;;12.00;62.20;;;;;;5004609;28;20697;-84
2022/04/18 11:45:39;;;;;;;0.30;0.20;;;11.50;59.30;;;;;;5003104;28;20550;-84
2022/04/18 11:48:06;;;;;;;0.30;0.20;;;11.40;61.60;;;;;;5003001;28;20507;-85
2022/04/18 11:50:36;;;;;;;0.30;0.20;;;11.40;61.20;;;;;;5008004;28;20454;-85
2022/04/18 11:53:07;;;;;;;0.30;0.20;;;11.20;63.70;;;;;;5007539;28;20454;-84
2022/04/18 11:55:42;;;;;;;0.30;0.20;;;11.20;61.60;;;;;;5005381;28;20474;-83
2022/04/18 11:58:09;;;;;;;0.30;0.20;;;11.20;63.50;;;;;;4992070;28;20549;-85
2022/04/18 12:08:52;;;;;;;0.30;0.20;;;11.40;61.80;;;;;;5009983;28;20540;-82
2022/04/18 12:11:19;;;;;;;0.30;0.20;;;11.40;60.90;;;;;;5014638;28;20516;-84
2022/04/18 12:13:47;;;;;;;0.30;0.20;;;11.60;61.20;;;;;;4997631;28;20632;-84
2022/04/18 12:16:17;;;;;;;0.30;0.20;;;11.70;61.90;;;;;;4995316;28;20481;-85
2022/04/18 12:18:45;;;;;;;0.30;0.20;;;11.60;59.80;;;;;;5002815;28;20465;-83
2022/04/18 12:21:13;;;;;;;0.40;0.30;;;11.70;61.20;;;;;;5012306;28;20489;-84
2022/04/18 12:23:40;;;;;;;0.30;0.20;;;11.70;61.10;;;;;;5001984;28;20473;-83
2022/04/18 12:26:12;;;;;;;0.30;0.20;;;11.80;60.10;;;;;;4994110;28;20494;-85
2022/04/18 12:28:39;;;;;;;0.30;0.13;;;12.00;63.90;;;;;;4990574;28;20470;-85
2022/04/18 12:31:10;;;;;;;0.40;0.30;;;12.10;64.50;;;;;;5001172;28;20472;-84
2022/04/18 12:33:46;;;;;;;0.30;0.20;;;12.10;61.40;;;;;;4994983;28;20486;-84
2022/04/18 12:36:23;;;;;;;0.30;0.20;;;12.20;60.00;;;;;;5001080;28;20481;-83
2022/04/18 12:38:50;;;;;;;0.30;0.20;;;12.20;61.40;;;;;;5010029;28;20823;-83
2022/04/18 12:41:27;;;;;;;0.30;0.20;;;12.40;61.20;;;;;;5010949;28;21024;-83
2022/04/18 12:43:54;;;;;;;0.37;0.23;;;12.20;60.30;;;;;;5022722;28;20498;-85
2022/04/18 12:46:25;;;;;;;0.40;0.20;;;12.10;63.30;;;;;;5005233;28;20494;-83
2022/04/18 12:48:53;;;;;;;0.30;0.20;;;12.30;61.80;;;;;;5007477;28;20498;-83
2022/04/18 12:51:30;;;;;;;0.30;0.10;;;12.70;61.90;;;;;;4995267;28;20971;-83
2022/04/18 12:53:57;;;;;;;0.30;0.10;;;12.80;63.30;;;;;;5004171;28;20472;-83
2022/04/18 12:56:27;;;;;;;0.30;0.20;;;12.80;58.90;;;;;;5003988;28;21220;-83
2022/04/18 12:59:03;;;;;;;0.40;0.30;;;13.10;58.20;;;;;;5012982;28;20461;-83
2022/04/18 13:01:32;;;;;;;0.60;0.50;;;13.70;58.20;;;;;;5009593;28;20456;-85
2022/04/18 13:04:00;;;;;;;0.30;0.20;;;14.00;60.60;;;;;;4997979;28;21007;-84
2022/04/18 13:06:29;;;;;;;0.30;0.20;;;14.10;57.80;;;;;;5005329;28;20493;-83
2022/04/18 13:09:04;;;;;;;0.30;0.20;;;14.20;57.40;;;;;;4999731;28;20615;-84
2022/04/18 13:11:40;;;;;;;0.30;0.20;;;14.70;56.90;;;;;;4999846;28;20558;-84
2022/04/18 13:14:07;;;;;;;0.30;0.13;;;14.40;56.00;;;;;;4999153;28;21157;-84
2022/04/18 13:16:35;;;;;;;0.37;0.30;;;14.40;56.70;;;;;;4996286;28;20490;-83
2022/04/18 13:19:04;;;;;;;0.30;0.20;;;14.40;55.90;;;;;;4997310;28;20475;-84
2022/04/18 13:21:31;;;;;;;0.77;0.37;;;14.30;54.70;;;;;;4988599;28;20501;-84